Time;durP1;ratioP1;P1;durP2;ratioP2;P2;SDS_P1;SDS_P2;PMS_P1;PMS_P2;Temp;Humidity;BMP_temperature;BMP_pressure;BME280_temperature;BME280_humidity;BME280_pressure;Samples;Min_cycle;Max_cycle;Signal;HPM_P1;HPM_P2
2023/11/08 00:00:55;;;;;;;524.17;176.53;;;;;;;11.49;95.40;94972.09;4973601;28;20449;-78
2023/11/08 00:03:22;;;;;;;532.27;188.97;;;;;;;11.53;95.78;94967.41;4973648;28;20444;-78
2023/11/08 00:05:49;;;;;;;531.43;190.17;;;;;;;11.51;95.60;94977.22;4973261;28;20445;-78
2023/11/08 00:08:17;;;;;;;539.97;195.57;;;;;;;11.38;95.54;94929.34;4973453;28;20957;-78
2023/11/08 00:10:44;;;;;;;533.63;187.37;;;;;;;11.41;95.91;94960.59;4973363;28;20803;-78
2023/11/08 00:13:11;;;;;;;526.73;174.43;;;;;;;11.40;95.96;94944.00;4973607;28;20453;-77
2023/11/08 00:15:37;;;;;;;529.67;185.00;;;;;;;11.43;95.81;94963.91;4973308;28;20536;-78
2023/11/08 00:18:05;;;;;;;529.57;180.57;;;;;;;11.36;95.93;94931.28;4939405;28;20449;-78
2023/11/08 00:20:32;;;;;;;536.50;192.23;;;;;;;11.38;97.00;94960.88;4973167;28;20876;-77
2023/11/08 00:22:59;;;;;;;524.67;175.43;;;;;;;11.32;96.66;94935.13;4973197;28;20927;-78
2023/11/08 00:25:27;;;;;;;525.30;168.43;;;;;;;11.40;97.24;94932.66;4973171;28;20453;-77
2023/11/08 00:27:54;;;;;;;533.40;187.30;;;;;;;11.41;97.01;94902.78;4973163;28;20503;-78
2023/11/08 00:30:21;;;;;;;531.17;183.90;;;;;;;11.42;97.69;94914.97;4939177;28;20452;-78
2023/11/08 00:32:48;;;;;;;528.10;184.10;;;;;;;11.53;97.72;94914.00;4973016;28;20445;-78
2023/11/08 00:35:14;;;;;;;530.47;191.37;;;;;;;11.56;97.23;94911.94;4972705;28;21019;-78
2023/11/08 00:37:41;;;;;;;531.57;187.50;;;;;;;11.52;97.33;94912.34;4973349;28;20481;-78
2023/11/08 00:40:09;;;;;;;530.07;182.57;;;;;;;11.58;97.87;94910.03;4973350;28;20445;-77
2023/11/08 00:42:37;;;;;;;535.27;192.47;;;;;;;11.66;97.50;94904.09;4972926;28;20521;-77
2023/11/08 00:45:05;;;;;;;534.20;180.40;;;;;;;11.59;97.59;94884.59;4972983;28;20451;-78
2023/11/08 00:47:32;;;;;;;530.07;186.67;;;;;;;11.58;98.14;94899.53;4972720;28;20949;-78
2023/11/08 00:49:59;;;;;;;535.53;192.60;;;;;;;11.68;97.79;94904.78;4972836;28;20842;-77
2023/11/08 00:52:25;;;;;;;528.37;184.73;;;;;;;11.76;97.50;94915.44;4973050;28;20446;-77
2023/11/08 00:54:53;;;;;;;530.53;190.17;;;;;;;11.71;96.68;94904.50;4972934;28;20490;-78
2023/11/08 00:57:20;;;;;;;525.13;178.17;;;;;;;11.70;96.83;94918.63;4972899;28;20953;-78
2023/11/08 00:59:49;;;;;;;540.43;188.80;;;;;;;11.68;96.81;94889.00;4973022;28;20499;-78
2023/11/08 01:02:15;;;;;;;531.30;196.13;;;;;;;11.67;97.29;94900.50;4938951;28;20437;-78
2023/11/08 01:04:42;;;;;;;533.20;192.00;;;;;;;11.60;96.58;94876.56;4974506;28;20500;-77
2023/11/08 01:07:09;;;;;;;527.63;180.60;;;;;;;11.56;97.31;94896.16;4942433;28;20943;-77
2023/11/08 01:09:36;;;;;;;529.83;181.10;;;;;;;11.45;98.04;94870.03;4976586;28;20443;-77
2023/11/08 01:12:03;;;;;;;528.50;182.87;;;;;;;11.51;98.89;94887.88;4942363;28;20448;-78
2023/11/08 01:14:29;;;;;;;526.70;186.67;;;;;;;11.48;98.70;94872.38;4976598;28;20503;-77
2023/11/08 01:17:00;;;;;;;528.23;181.80;;;;;;;11.51;98.57;94881.78;4976574;28;20444;-78
2023/11/08 01:19:28;;;;;;;527.63;188.80;;;;;;;11.53;99.01;94867.53;4942486;28;20446;-78
2023/11/08 01:21:55;;;;;;;530.80;185.13;;;;;;;11.53;98.29;94849.13;4976801;28;20570;-77
2023/11/08 01:24:22;;;;;;;541.70;190.53;;;;;;;11.60;98.93;94865.22;4976150;28;20458;-77
2023/11/08 01:26:49;;;;;;;532.47;193.50;;;;;;;11.57;98.44;94866.31;4942091;28;20473;-77
2023/11/08 01:29:16;;;;;;;524.27;176.80;;;;;;;11.53;98.01;94870.16;4976447;28;20438;-77
2023/11/08 01:31:43;;;;;;;531.57;193.60;;;;;;;11.44;99.16;94855.22;4942266;28;20452;-78
2023/11/08 01:34:11;;;;;;;529.50;184.07;;;;;;;11.46;99.62;94869.06;4942489;28;20492;-78
2023/11/08 01:36:38;;;;;;;533.23;194.63;;;;;;;11.49;98.39;94863.53;4926078;28;20500;-77
2023/11/08 01:39:05;;;;;;;530.53;193.60;;;;;;;11.46;97.98;94858.53;4975918;28;20857;-77
2023/11/08 01:41:32;;;;;;;534.17;186.37;;;;;;;11.44;99.11;94858.69;4976186;28;20670;-77
2023/11/08 01:44:00;;;;;;;535.97;191.37;;;;;;;11.45;98.92;94860.34;4975898;28;20449;-77
2023/11/08 01:46:28;;;;;;;533.33;180.13;;;;;;;11.46;99.61;94855.91;4975936;28;20532;-77
2023/11/08 01:48:56;;;;;;;528.03;178.63;;;;;;;11.42;98.53;94846.66;4957635;28;20440;-78
2023/11/08 01:51:26;;;;;;;525.33;175.60;;;;;;;11.45;99.31;94854.25;4975886;28;20445;-78
2023/11/08 01:53:54;;;;;;;527.97;185.37;;;;;;;11.14;100.00;94838.56;4976355;28;20880;-78
2023/11/08 01:56:23;;;;;;;525.17;175.63;;;;;;;11.30;99.64;94847.75;4975558;28;20490;-78
2023/11/08 01:58:52;;;;;;;526.97;179.87;;;;;;;11.00;100.00;94823.22;4975797;28;20476;-78
2023/11/08 02:01:19;;;;;;;524.60;171.50;;;;;;;10.81;100.00;94820.53;4975866;28;20449;-78
2023/11/08 02:03:47;;;;;;;528.93;170.87;;;;;;;11.00;100.00;94817.13;4975490;28;20481;-78
2023/11/08 02:06:15;;;;;;;519.90;159.30;;;;;;;11.06;100.00;94808.72;4975729;28;20442;-77
2023/11/08 02:08:44;;;;;;;514.97;156.57;;;;;;;10.80;100.00;94803.94;4975458;28;20495;-78
2023/11/08 02:11:11;;;;;;;518.60;168.67;;;;;;;10.94;100.00;94810.59;4975679;28;20452;-77
2023/11/08 02:13:38;;;;;;;513.77;157.80;;;;;;;11.05;100.00;94812.31;4975265;28;20456;-77
2023/11/08 02:16:05;;;;;;;515.07;158.53;;;;;;;11.13;100.00;94805.41;4974789;28;20495;-78
2023/11/08 02:18:33;;;;;;;509.00;151.32;;;;;;;11.23;100.00;94815.09;4975439;28;20438;-78
2023/11/08 02:21:00;;;;;;;508.70;154.97;;;;;;;11.33;100.00;94801.03;4975897;28;20204;-78
2023/11/08 02:23:27;;;;;;;514.70;157.87;;;;;;;11.44;100.00;94813.19;4975118;28;20437;-78
2023/11/08 02:25:56;;;;;;;509.60;157.20;;;;;;;11.52;100.00;94794.09;4957122;28;20445;-78
2023/11/08 02:28:23;;;;;;;516.37;157.80;;;;;;;11.58;99.76;94802.28;4975252;28;20464;-78
2023/11/08 02:30:53;;;;;;;515.00;163.03;;;;;;;11.64;99.47;94806.97;4975343;28;20481;-77
2023/11/08 02:33:20;;;;;;;517.17;167.90;;;;;;;11.73;99.68;94797.41;4975170;28;20450;-77
2023/11/08 02:35:48;;;;;;;511.87;163.63;;;;;;;11.76;99.79;94803.22;4974905;28;20552;-78
2023/11/08 02:38:15;;;;;;;515.07;169.20;;;;;;;11.75;99.47;94813.88;4975169;28;21026;-77
2023/11/08 02:40:43;;;;;;;510.70;164.90;;;;;;;11.81;99.77;94829.13;4975215;28;20521;-78
2023/11/08 02:43:12;;;;;;;511.07;162.40;;;;;;;11.82;98.58;94822.06;4974865;28;21022;-78
2023/11/08 02:45:40;;;;;;;513.63;167.13;;;;;;;11.78;99.12;94798.69;4974855;28;20932;-77
2023/11/08 02:48:07;;;;;;;517.53;175.63;;;;;;;11.84;98.86;94815.69;4925078;28;20889;-78
2023/11/08 02:50:36;;;;;;;513.07;160.70;;;;;;;11.79;98.21;94828.44;4974484;28;20449;-78
2023/11/08 02:53:03;;;;;;;516.37;168.93;;;;;;;11.79;98.71;94826.63;4974923;28;20536;-78
2023/11/08 02:55:30;;;;;;;507.80;157.60;;;;;;;11.73;98.75;94824.53;4974410;28;20493;-77
2023/11/08 02:57:57;;;;;;;510.23;164.67;;;;;;;11.79;99.60;94813.50;4974905;28;20844;-78
2023/11/08 03:00:25;;;;;;;512.97;162.33;;;;;;;11.83;98.32;94818.47;4974599;28;20452;-78
2023/11/08 03:02:52;;;;;;;516.13;162.13;;;;;;;11.88;98.54;94811.03;4974482;28;20441;-77
2023/11/08 03:05:21;;;;;;;514.00;156.70;;;;;;;11.96;98.11;94805.88;4972416;28;20788;-77
2023/11/08 03:07:48;;;;;;;519.67;168.50;;;;;;;12.00;98.34;94804.63;4974323;28;20844;-78
2023/11/08 03:10:17;;;;;;;511.90;171.07;;;;;;;11.96;98.05;94798.00;4974390;28;20450;-77
2023/11/08 03:12:45;;;;;;;510.17;165.60;;;;;;;12.00;97.75;94821.22;4956302;28;20497;-78
2023/11/08 03:15:12;;;;;;;512.00;167.80;;;;;;;11.99;97.37;94816.94;4974309;28;20545;-78
2023/11/08 03:17:41;;;;;;;510.93;157.90;;;;;;;11.97;97.54;94818.88;4974228;28;20965;-78
2023/11/08 03:20:09;;;;;;;517.10;164.70;;;;;;;11.95;98.09;94798.97;4974586;28;20443;-78
2023/11/08 03:22:37;;;;;;;507.50;161.27;;;;;;;11.91;98.02;94800.22;4974327;28;20440;-78
2023/11/08 03:25:04;;;;;;;509.90;157.00;;;;;;;11.94;98.73;94805.19;4974275;28;20464;-78
2023/11/08 03:27:31;;;;;;;508.47;158.93;;;;;;;11.99;98.34;94771.41;4973511;28;20488;-78
2023/11/08 03:29:58;;;;;;;506.60;162.27;;;;;;;12.01;97.52;94785.25;4973817;28;20485;-77
2023/11/08 03:32:27;;;;;;;507.63;157.80;;;;;;;12.06;97.76;94783.00;4974213;28;20446;-77
2023/11/08 03:34:55;;;;;;;506.23;158.80;;;;;;;11.96;97.74;94776.97;4973893;28;20504;-77
2023/11/08 03:37:23;;;;;;;512.05;160.52;;;;;;;11.91;98.01;94768.66;4973445;28;20502;-77
2023/11/08 03:39:51;;;;;;;505.87;155.50;;;;;;;11.86;97.63;94781.41;4973853;28;20206;-78
2023/11/08 03:42:17;;;;;;;504.83;160.10;;;;;;;11.83;97.54;94782.50;4974058;28;20457;-77
2023/11/08 03:44:44;;;;;;;510.10;158.80;;;;;;;11.81;98.14;94794.13;4923825;28;20445;-77
2023/11/08 03:47:11;;;;;;;516.70;161.47;;;;;;;11.70;98.27;94779.31;4973932;28;20446;-80
2023/11/08 03:49:38;;;;;;;509.77;162.10;;;;;;;11.51;99.57;94774.88;4973939;28;20447;-77
2023/11/08 03:52:06;;;;;;;515.17;159.60;;;;;;;11.52;99.56;94783.59;4938792;28;20213;-77
2023/11/08 03:54:33;;;;;;;514.20;165.90;;;;;;;11.40;100.00;94773.22;4973455;28;20449;-77
2023/11/08 03:57:00;;;;;;;513.10;160.60;;;;;;;11.33;100.00;94780.00;4973442;28;20492;-77
2023/11/08 03:59:27;;;;;;;511.02;164.50;;;;;;;11.36;100.00;94778.91;4938276;28;20987;-77
2023/11/08 04:01:54;;;;;;;505.50;155.32;;;;;;;11.24;100.00;94791.31;4973905;28;20209;-77
2023/11/08 04:04:21;;;;;;;508.75;159.98;;;;;;;11.22;100.00;94801.13;4973476;28;20280;-78
2023/11/08 04:06:48;;;;;;;510.52;154.30;;;;;;;11.36;100.00;94800.75;4973486;28;20236;-77
2023/11/08 04:09:16;;;;;;;507.38;156.50;;;;;;;11.39;100.00;94797.84;4973435;28;20812;-78
2023/11/08 04:11:43;;;;;;;508.27;158.00;;;;;;;11.34;100.00;94812.34;4973599;28;20596;-79
2023/11/08 04:14:10;;;;;;;505.45;152.30;;;;;;;11.47;100.00;94815.53;4973604;28;20210;-77
2023/11/08 04:16:39;;;;;;;509.15;155.32;;;;;;;11.41;100.00;94795.06;4973000;28;20228;-78
2023/11/08 04:19:06;;;;;;;512.10;153.95;;;;;;;11.40;100.00;94812.63;4973676;28;20185;-78
2023/11/08 04:21:32;;;;;;;507.95;158.07;;;;;;;11.47;100.00;94818.16;4973158;28;20664;-77
2023/11/08 04:23:59;;;;;;;512.50;162.43;;;;;;;11.53;100.00;94787.88;4923148;28;20672;-77
2023/11/08 04:26:29;;;;;;;511.10;159.45;;;;;;;11.59;100.00;94800.50;4972824;28;20345;-77
2023/11/08 04:28:58;;;;;;;504.58;159.98;;;;;;;11.62;100.00;94803.66;4973272;28;20206;-77
2023/11/08 04:31:24;;;;;;;509.90;156.87;;;;;;;11.65;100.00;94792.03;4939640;28;20264;-77
2023/11/08 04:33:52;;;;;;;504.63;158.35;;;;;;;11.70;100.00;94793.28;4972855;28;20456;-79
2023/11/08 04:36:18;;;;;;;507.48;154.18;;;;;;;11.61;100.00;94788.88;4972933;28;20229;-77
2023/11/08 04:38:45;;;;;;;510.35;161.35;;;;;;;11.61;99.67;94809.88;4972561;28;20697;-77
2023/11/08 04:41:14;;;;;;;505.52;155.93;;;;;;;11.57;100.00;94808.50;4972571;28;20272;-76
2023/11/08 04:43:43;;;;;;;508.30;155.48;;;;;;;11.64;100.00;94796.47;4972851;28;20245;-77
2023/11/08 04:46:11;;;;;;;510.98;155.30;;;;;;;11.67;100.00;94808.50;4972809;28;20221;-76
2023/11/08 04:48:37;;;;;;;514.38;161.90;;;;;;;11.66;100.00;94796.31;4972580;28;20566;-76
2023/11/08 04:51:05;;;;;;;512.10;160.45;;;;;;;11.68;100.00;94797.84;4972840;28;20669;-77
2023/11/08 04:53:31;;;;;;;509.90;159.88;;;;;;;11.69;100.00;94791.63;4973030;28;20205;-76
2023/11/08 04:55:58;;;;;;;511.50;157.48;;;;;;;11.48;100.00;94785.66;4954229;28;20228;-76
2023/11/08 04:58:25;;;;;;;508.45;153.63;;;;;;;11.54;100.00;94797.41;4972430;28;20583;-77
2023/11/08 05:00:53;;;;;;;512.38;156.52;;;;;;;11.65;100.00;94797.28;4971611;28;20219;-76
2023/11/08 05:03:20;;;;;;;515.40;157.48;;;;;;;11.76;100.00;94813.75;4972737;28;20605;-77
2023/11/08 05:05:47;;;;;;;517.55;162.20;;;;;;;11.81;100.00;94826.50;4972656;28;20199;-77
2023/11/08 05:08:14;;;;;;;508.70;161.40;;;;;;;11.85;100.00;94833.13;4937243;28;20570;-77
2023/11/08 05:10:41;;;;;;;514.35;160.75;;;;;;;11.94;100.00;94836.75;4972365;28;20433;-77
2023/11/08 05:13:07;;;;;;;503.60;157.52;;;;;;;12.04;100.00;94837.56;4972607;28;20201;-77
2023/11/08 05:15:34;;;;;;;508.87;156.80;;;;;;;12.13;100.00;94820.94;4972468;28;20247;-77
2023/11/08 05:18:03;;;;;;;513.23;156.73;;;;;;;12.15;100.00;94813.75;4972422;28;20512;-77
2023/11/08 05:20:30;;;;;;;512.50;163.60;;;;;;;12.23;100.00;94816.50;4972384;28;20936;-77
2023/11/08 05:22:57;;;;;;;509.80;163.63;;;;;;;12.32;100.00;94814.81;4972492;28;20465;-77
2023/11/08 05:25:24;;;;;;;515.70;171.90;;;;;;;12.39;100.00;94816.72;4972787;28;20447;-77
2023/11/08 05:27:52;;;;;;;517.53;170.73;;;;;;;12.49;99.79;94823.78;4972196;28;20446;-77
2023/11/08 05:30:19;;;;;;;517.40;177.43;;;;;;;12.54;99.18;94821.53;4937775;28;20439;-78
2023/11/08 05:32:46;;;;;;;520.57;181.03;;;;;;;12.57;99.02;94816.81;4971705;28;20852;-77
2023/11/08 05:35:15;;;;;;;518.87;182.40;;;;;;;12.62;98.27;94824.28;4971536;28;20495;-78
2023/11/08 05:37:43;;;;;;;520.57;192.87;;;;;;;12.69;98.80;94820.91;4971427;28;20501;-77
2023/11/08 05:40:12;;;;;;;513.17;171.07;;;;;;;12.70;97.76;94813.84;4971553;28;20812;-77
2023/11/08 05:42:39;;;;;;;510.20;174.17;;;;;;;12.77;98.07;94820.22;4972052;28;20548;-77
2023/11/08 05:45:08;;;;;;;515.80;182.77;;;;;;;12.79;97.94;94833.22;4972001;28;20882;-77
2023/11/08 05:47:34;;;;;;;511.50;175.80;;;;;;;12.83;97.83;94824.06;4938217;28;20934;-77
2023/11/08 05:50:01;;;;;;;520.90;173.40;;;;;;;12.84;97.17;94821.28;4973621;28;20466;-77
2023/11/08 05:52:30;;;;;;;513.07;171.57;;;;;;;12.91;96.68;94819.72;4994016;28;20438;-77
2023/11/08 05:54:57;;;;;;;538.47;201.67;;;;;;;12.95;96.66;94825.50;4995210;28;20804;-77
2023/11/08 05:57:24;;;;;;;525.47;193.97;;;;;;;12.99;96.83;94819.81;4994957;28;20495;-76
2023/11/08 05:59:51;;;;;;;526.07;189.63;;;;;;;13.07;96.70;94831.44;4994647;28;20466;-79
2023/11/08 06:02:18;;;;;;;522.73;197.90;;;;;;;13.13;96.57;94823.78;4994824;28;20542;-77
2023/11/08 06:04:45;;;;;;;526.40;185.97;;;;;;;13.19;97.28;94814.47;4994878;28;20451;-77
2023/11/08 06:07:12;;;;;;;532.47;202.30;;;;;;;13.21;96.92;94815.16;4994669;28;20454;-78
2023/11/08 06:09:43;;;;;;;523.67;189.47;;;;;;;13.23;99.21;94815.84;4994676;28;20452;-77
2023/11/08 06:12:10;;;;;;;524.00;184.67;;;;;;;13.31;98.60;94818.56;4994611;28;20450;-77
2023/11/08 06:14:37;;;;;;;524.30;203.20;;;;;;;13.44;100.00;94826.94;4994842;28;20442;-77
2023/11/08 06:17:04;;;;;;;537.47;214.90;;;;;;;13.49;100.00;94837.03;4986219;28;20844;-77
2023/11/08 06:19:30;;;;;;;530.60;200.43;;;;;;;13.50;97.97;94839.53;4975578;28;20505;-77
2023/11/08 06:21:57;;;;;;;528.17;186.05;;;;;;;13.40;96.77;94841.41;4986236;28;20475;-75
2023/11/08 06:24:24;;;;;;;524.53;196.30;;;;;;;13.37;96.38;94839.06;4987345;28;20204;-77
2023/11/08 06:26:52;;;;;;;525.70;189.80;;;;;;;13.44;96.76;94849.84;4991764;28;20440;-77
2023/11/08 06:29:19;;;;;;;529.87;207.07;;;;;;;13.49;96.75;94856.31;4983210;28;20449;-77
2023/11/08 06:31:46;;;;;;;523.00;195.53;;;;;;;13.46;96.77;94850.50;4979637;28;20445;-78
2023/11/08 06:34:14;;;;;;;520.73;195.93;;;;;;;13.43;96.39;94849.00;4985874;28;20955;-78
2023/11/08 06:36:40;;;;;;;516.10;194.00;;;;;;;13.47;96.15;94853.00;4989132;28;20498;-77
2023/11/08 06:39:12;;;;;;;536.63;189.97;;;;;;;13.53;96.48;94865.56;4993714;28;20533;-77
2023/11/08 06:41:39;;;;;;;520.30;190.60;;;;;;;13.61;96.65;94867.50;4978344;28;20501;-78
2023/11/08 06:44:07;;;;;;;522.17;192.83;;;;;;;13.65;96.24;94863.56;4974514;28;20456;-78
2023/11/08 06:46:34;;;;;;;522.20;199.30;;;;;;;13.71;96.28;94859.50;4973191;28;20480;-77
2023/11/08 06:49:01;;;;;;;518.40;195.87;;;;;;;13.75;95.93;94860.88;4974062;28;20441;-77
2023/11/08 06:51:28;;;;;;;522.10;195.80;;;;;;;13.71;96.51;94851.59;4939737;28;20861;-78
2023/11/08 06:53:54;;;;;;;524.83;196.87;;;;;;;13.77;96.06;94867.66;4939527;28;20533;-78
2023/11/08 06:56:23;;;;;;;520.07;203.57;;;;;;;13.80;96.23;94862.06;4973195;28;20476;-78
2023/11/08 06:58:50;;;;;;;519.83;191.33;;;;;;;13.75;96.18;94863.50;4978681;28;20452;-77
2023/11/08 07:01:23;;;;;;;518.07;200.33;;;;;;;13.77;96.49;94872.09;4982252;28;20443;-78
2023/11/08 07:03:51;;;;;;;528.97;193.90;;;;;;;13.78;97.35;94885.13;4951363;28;20437;-77
2023/11/08 07:06:18;;;;;;;524.93;199.50;;;;;;;13.82;97.88;94878.56;4993040;28;20446;-77
2023/11/08 07:08:45;;;;;;;519.07;196.33;;;;;;;13.87;97.88;94896.56;4992994;28;20451;-78
2023/11/08 07:11:15;;;;;;;522.00;203.17;;;;;;;13.92;97.71;94918.91;4993453;28;20449;-78
2023/11/08 07:13:42;;;;;;;529.13;193.90;;;;;;;13.93;97.85;94904.75;4993986;28;20462;-77
2023/11/08 07:16:09;;;;;;;521.80;195.33;;;;;;;13.94;98.09;94911.69;4959501;28;20453;-78
2023/11/08 07:18:37;;;;;;;520.50;199.87;;;;;;;14.01;97.66;94909.25;4993594;28;20495;-78
2023/11/08 07:21:05;;;;;;;523.37;207.43;;;;;;;14.06;97.93;94909.63;4993214;28;20437;-78
2023/11/08 07:23:31;;;;;;;537.23;223.77;;;;;;;14.12;98.28;94913.47;4992903;28;20930;-78
2023/11/08 07:25:58;;;;;;;515.13;205.07;;;;;;;14.08;98.94;94902.41;4993442;28;20448;-78
2023/11/08 07:28:25;;;;;;;523.90;210.07;;;;;;;13.88;99.90;94885.06;4974709;28;20540;-77
2023/11/08 07:30:52;;;;;;;524.40;211.80;;;;;;;13.96;100.00;94882.50;4992932;28;20454;-77
2023/11/08 07:33:19;;;;;;;518.87;208.30;;;;;;;14.07;100.00;94870.88;4992779;28;20444;-77
2023/11/08 07:35:48;;;;;;;521.30;217.20;;;;;;;14.08;100.00;94865.44;4992831;28;20454;-77
2023/11/08 07:38:15;;;;;;;529.70;207.03;;;;;;;14.05;100.00;94870.22;4992309;28;20511;-77
2023/11/08 07:40:42;;;;;;;528.63;201.90;;;;;;;13.99;100.00;94874.28;4992910;28;20479;-76
2023/11/08 07:43:09;;;;;;;519.03;191.37;;;;;;;13.83;100.00;94860.94;4992783;28;20535;-76
2023/11/08 07:45:36;;;;;;;520.47;206.03;;;;;;;13.86;100.00;94855.34;4992529;28;20447;-76
2023/11/08 07:48:03;;;;;;;526.43;201.33;;;;;;;13.89;100.00;94863.00;4992502;28;20456;-76
2023/11/08 07:50:30;;;;;;;531.23;214.97;;;;;;;13.85;100.00;94872.16;4992587;28;20441;-77
2023/11/08 07:53:01;;;;;;;528.57;213.70;;;;;;;13.89;100.00;94900.75;4992712;28;20450;-77
2023/11/08 07:55:28;;;;;;;522.77;203.43;;;;;;;13.93;100.00;94904.75;4992899;28;20436;-77
2023/11/08 07:57:54;;;;;;;526.47;202.47;;;;;;;13.94;100.00;94892.38;4958188;28;20498;-77
2023/11/08 08:00:24;;;;;;;517.87;202.57;;;;;;;13.94;100.00;94884.47;4957884;28;20444;-76
2023/11/08 08:02:51;;;;;;;519.57;202.63;;;;;;;13.79;100.00;94846.38;4992481;28;20447;-77
2023/11/08 08:05:17;;;;;;;512.23;183.07;;;;;;;13.77;100.00;94836.00;4992302;28;20451;-77
2023/11/08 08:07:44;;;;;;;521.63;204.93;;;;;;;13.61;100.00;94801.56;4992627;28;20917;-77
2023/11/08 08:10:13;;;;;;;516.50;183.63;;;;;;;13.61;100.00;94801.56;4992050;28;20444;-77
2023/11/08 08:12:40;;;;;;;510.73;182.37;;;;;;;13.61;100.00;94820.88;4958208;28;20452;-77
2023/11/08 08:15:09;;;;;;;522.20;195.37;;;;;;;13.64;100.00;94812.66;4941078;28;20539;-77
2023/11/08 08:17:36;;;;;;;514.07;188.27;;;;;;;13.43;100.00;94779.66;4992187;28;20486;-76
2023/11/08 08:20:03;;;;;;;510.57;190.57;;;;;;;13.59;100.00;94753.44;4992207;28;20946;-77
2023/11/08 08:22:30;;;;;;;514.33;189.57;;;;;;;13.66;100.00;94787.94;4992586;28;20455;-74
2023/11/08 08:24:57;;;;;;;517.63;192.20;;;;;;;13.67;100.00;94813.31;4992143;28;20451;-77
2023/11/08 08:27:25;;;;;;;524.83;196.17;;;;;;;13.63;100.00;94811.00;4992010;28;20830;-77
2023/11/08 08:29:53;;;;;;;513.10;182.73;;;;;;;13.64;100.00;94817.09;4992145;28;20481;-77
2023/11/08 08:56:15;;;;;;;531.30;251.60;;;;;;;14.19;100.00;94828.28;5068389;27;20916;-75
2023/11/08 08:58:41;;;;;;;512.90;207.50;;;;;;;14.29;100.00;94830.81;5047527;28;20441;-75
2023/11/08 09:01:12;;;;;;;514.33;213.47;;;;;;;14.12;100.00;94821.94;5066262;28;20438;-76
2023/11/08 09:03:39;;;;;;;509.13;194.47;;;;;;;14.14;99.24;94827.91;5066126;28;20462;-76
2023/11/08 09:06:05;;;;;;;502.27;192.67;;;;;;;14.29;100.00;94848.47;5066233;28;20446;-76
2023/11/08 09:08:32;;;;;;;501.93;177.57;;;;;;;14.29;100.00;94819.44;5066599;28;20456;-76
2023/11/08 09:10:59;;;;;;;500.30;187.67;;;;;;;14.35;100.00;94824.91;5066269;28;20867;-76
2023/11/08 09:13:27;;;;;;;508.33;187.93;;;;;;;14.40;100.00;94827.91;5066259;27;20444;-76
2023/11/08 09:15:54;;;;;;;499.83;188.10;;;;;;;14.44;100.00;94855.69;5065784;28;20329;-77
2023/11/08 09:18:21;;;;;;;524.30;190.77;;;;;;;14.48;100.00;94854.44;5066289;28;20441;-77
2023/11/08 09:20:48;;;;;;;503.20;180.00;;;;;;;14.45;100.00;94856.53;5065954;28;20529;-77
2023/11/08 09:23:16;;;;;;;504.50;191.03;;;;;;;14.44;100.00;94876.00;5065895;27;21087;-77
2023/11/08 09:25:43;;;;;;;514.40;192.87;;;;;;;14.47;100.00;94875.72;5065901;28;20532;-77
2023/11/08 09:28:10;;;;;;;507.10;185.27;;;;;;;14.54;100.00;94860.91;5065885;28;20445;-77
2023/11/08 09:30:38;;;;;;;510.27;196.07;;;;;;;14.51;100.00;94858.56;5066225;28;20449;-77
2023/11/08 09:33:05;;;;;;;512.50;189.80;;;;;;;14.57;100.00;94865.88;5117437;28;20781;-77
2023/11/08 09:35:31;;;;;;;502.33;180.20;;;;;;;14.58;100.00;94867.53;5134997;27;20437;-78
2023/11/08 09:37:58;;;;;;;500.57;189.13;;;;;;;14.59;100.00;94879.75;5065564;28;20452;-76
2023/11/08 09:40:25;;;;;;;505.37;196.90;;;;;;;14.62;100.00;94883.88;5065925;28;20521;-75
2023/11/08 09:42:56;;;;;;;497.17;180.80;;;;;;;14.65;100.00;94883.56;5065812;27;20446;-75
2023/11/08 09:45:26;;;;;;;507.97;195.67;;;;;;;14.71;100.00;94882.94;5047462;28;20491;-76
2023/11/08 09:47:54;;;;;;;500.50;187.87;;;;;;;14.73;100.00;94897.66;5065708;28;20441;-76
2023/11/08 09:50:23;;;;;;;506.80;193.27;;;;;;;14.75;100.00;94906.28;5065543;27;20477;-76
2023/11/08 09:52:50;;;;;;;507.97;193.70;;;;;;;14.76;100.00;94907.09;5065401;28;20959;-75
2023/11/08 09:55:17;;;;;;;513.20;205.37;;;;;;;14.74;100.00;94904.59;5062797;28;20831;-73
2023/11/08 09:57:45;;;;;;;521.00;196.33;;;;;;;14.66;100.00;94909.81;5052394;28;21047;-75
2023/11/08 10:00:14;;;;;;;505.30;192.57;;;;;;;14.60;100.00;94914.91;5047805;28;20472;-74
2023/11/08 10:02:41;;;;;;;511.87;194.20;;;;;;;14.57;100.00;94926.59;5044770;28;20443;-76
2023/11/08 10:05:09;;;;;;;507.57;184.57;;;;;;;14.43;100.00;94921.84;5018753;28;20489;-75
2023/11/08 10:07:37;;;;;;;512.80;183.63;;;;;;;14.32;100.00;94919.44;5039488;28;20489;-76
2023/11/08 10:10:04;;;;;;;510.63;183.90;;;;;;;14.20;100.00;94906.47;5020944;28;20434;-75
2023/11/08 10:12:34;;;;;;;504.77;177.90;;;;;;;14.19;100.00;94914.56;5032013;28;20842;-75
2023/11/08 10:15:06;;;;;;;514.47;189.00;;;;;;;14.15;100.00;94919.28;5031579;28;20823;-74
2023/11/08 10:17:37;;;;;;;513.77;180.93;;;;;;;14.15;100.00;94929.00;5028916;28;20463;-75
2023/11/08 10:20:08;;;;;;;505.13;181.10;;;;;;;14.17;100.00;94930.53;5031981;28;20436;-77
2023/11/08 10:22:37;;;;;;;501.53;182.30;;;;;;;14.18;100.00;94934.00;5031611;28;20441;-76
2023/11/08 10:25:05;;;;;;;499.77;170.70;;;;;;;14.18;100.00;94926.09;5031729;28;21000;-77
2023/11/08 10:27:34;;;;;;;499.52;170.50;;;;;;;14.13;100.00;94923.03;5032152;28;20454;-76
2023/11/08 10:30:15;;;;;;;501.67;172.57;;;;;;;14.15;100.00;94919.28;5044009;28;20568;-77
2023/11/08 10:32:43;;;;;;;497.80;174.07;;;;;;;14.19;100.00;94914.56;5051578;28;20451;-77
2023/11/08 10:35:14;;;;;;;512.83;174.40;;;;;;;14.25;100.00;94888.38;5045169;28;20473;-76
2023/11/08 10:37:43;;;;;;;503.73;179.37;;;;;;;14.16;100.00;94889.25;5043690;28;20451;-77
2023/11/08 10:40:13;;;;;;;501.70;176.90;;;;;;;14.16;100.00;94893.72;5031509;28;20444;-77
2023/11/08 10:42:40;;;;;;;498.17;170.13;;;;;;;14.15;100.00;94887.59;5031318;28;20514;-76
2023/11/08 10:45:08;;;;;;;509.50;178.20;;;;;;;14.20;100.00;94882.72;5031446;28;20482;-76
2023/11/08 10:47:36;;;;;;;503.97;184.93;;;;;;;14.23;100.00;94879.78;5031507;28;20447;-77
2023/11/08 10:50:05;;;;;;;501.87;181.67;;;;;;;14.19;100.00;94875.78;5031544;28;20447;-77
2023/11/08 10:52:33;;;;;;;510.17;181.60;;;;;;;14.08;100.00;94870.72;5031439;28;20818;-77
2023/11/08 10:55:04;;;;;;;506.37;180.10;;;;;;;14.09;100.00;94876.84;5031420;28;20537;-77
2023/11/08 10:57:33;;;;;;;505.93;174.63;;;;;;;13.95;100.00;94891.41;5031381;28;20449;-78
2023/11/08 11:00:01;;;;;;;507.30;179.00;;;;;;;13.83;100.00;94905.78;5031115;28;20446;-77
2023/11/08 11:02:34;;;;;;;497.70;166.50;;;;;;;13.77;100.00;94887.91;5031576;28;20458;-77
2023/11/08 11:05:04;;;;;;;506.77;173.07;;;;;;;13.71;100.00;94884.06;5031317;28;20493;-77
2023/11/08 11:07:32;;;;;;;500.77;168.03;;;;;;;13.65;100.00;94887.31;5030313;28;20507;-77
2023/11/08 11:10:00;;;;;;;509.57;183.97;;;;;;;13.58;100.00;94902.03;5030819;28;20991;-77
2023/11/08 11:12:37;;;;;;;496.80;167.23;;;;;;;13.47;100.00;94897.81;5030925;28;20446;-77
2023/11/08 11:15:11;;;;;;;495.70;158.10;;;;;;;13.48;100.00;94904.75;5030864;28;20951;-77
2023/11/08 11:17:44;;;;;;;490.27;155.35;;;;;;;13.43;100.00;94904.34;5030984;28;20203;-77
2023/11/08 11:20:15;;;;;;;491.95;157.50;;;;;;;13.43;100.00;94914.91;5030986;28;20209;-77
2023/11/08 11:22:42;;;;;;;491.48;157.75;;;;;;;13.48;100.00;94925.84;5030932;28;20258;-77